Terminal Aerodrome Forecast
Issued by NWS

Home | Current Version | Previous Version | Text Only | Print | Product List | Glossary On
Versions: 1 2 3 4 5 6 7 8 9 10 11 12 13
649
FTPA31 PHFO 122344
TAFHJH
TAF
PHJH 122344Z 1300/1324 07016G22KT P6SM FEW035 SCT050
     FM130600 08010KT P6SM FEW050
     FM132100 08017G23KT P6SM FEW035 SCT050=

USA.gov is the U.S. government's official web portal to all federal, state and local government web resources and services.